SWR1794 LSZH-LMML
Flight info
| Callsign | SWR1794 |
|---|---|
| Flight time | N/A |
| Altitude | 38000 |
| Route | VEBIT T53 GERSA DCT SOSON DCT ODINA DCT BAKRO/N0433F370 DCT RONAB DCT MARON DCT EKOLA L12 GZO |
| Aircraft | A320/M-SDE2E3FGHIJ1RWXY/LB1 |
Departure
| Time | 2026-04-30 18:21 |
|---|---|
| Airport | Zürich Airport (LSZH) |
Arrival
| Time | N/A |
|---|---|
| Airport | Malta International Airport (LMML) |
| Time | Latitude | Longitude | Altitude | Speed | Heading |
|---|---|---|---|---|---|
| 2026-04-30 18:00 | 47.45184 | 8.55751 | 1379 ft | 0 kts | 186° |
| 2026-04-30 18:11 | 47.45195 | 8.55752 | 1410 ft | 4 kts | 181° |
| 2026-04-30 18:11 | 47.45263 | 8.55705 | 1407 ft | 4 kts | 115° |
| 2026-04-30 18:12 | 47.45270 | 8.55593 | 1406 ft | 4 kts | 49° |
| 2026-04-30 18:13 | 47.45223 | 8.55589 | 1413 ft | 4 kts | 339° |
| 2026-04-30 18:13 | 47.45201 | 8.55602 | 1413 ft | 0 kts | 335° |
| 2026-04-30 18:15 | 47.45250 | 8.55569 | 1413 ft | 8 kts | 335° |
| 2026-04-30 18:16 | 47.45356 | 8.55351 | 1402 ft | 20 kts | 299° |
| 2026-04-30 18:16 | 47.45477 | 8.54895 | 1396 ft | 28 kts | 290° |
| 2026-04-30 18:17 | 47.45526 | 8.54676 | 1386 ft | 19 kts | 288° |
| 2026-04-30 18:17 | 47.45566 | 8.54491 | 1386 ft | 19 kts | 288° |
| 2026-04-30 18:17 | 47.45652 | 8.54101 | 1384 ft | 20 kts | 288° |
| 2026-04-30 18:18 | 47.45694 | 8.53909 | 1386 ft | 19 kts | 288° |
| 2026-04-30 18:18 | 47.45747 | 8.53768 | 1397 ft | 13 kts | 330° |
| 2026-04-30 18:18 | 47.45827 | 8.53757 | 1400 ft | 11 kts | 11° |
| 2026-04-30 18:18 | 47.45889 | 8.53788 | 1406 ft | 9 kts | 70° |
| 2026-04-30 18:19 | 47.45886 | 8.53867 | 1397 ft | 0 kts | 97° |
| 2026-04-30 18:20 | 47.45873 | 8.54044 | 1396 ft | 53 kts | 95° |
| 2026-04-30 18:20 | 47.45810 | 8.54948 | 1390 ft | 120 kts | 96° |
| 2026-04-30 18:21 | 47.45699 | 8.56385 | 1629 ft | 148 kts | 95° |
| 2026-04-30 18:21 | 47.45588 | 8.57885 | 2380 ft | 145 kts | 91° |
| 2026-04-30 18:21 | 47.45503 | 8.59363 | 3125 ft | 144 kts | 91° |
| 2026-04-30 18:21 | 47.45426 | 8.60909 | 3535 ft | 160 kts | 92° |
| 2026-04-30 18:22 | 47.45335 | 8.62634 | 3860 ft | 175 kts | 93° |
| 2026-04-30 18:22 | 47.46169 | 8.66118 | 4595 ft | 211 kts | 31° |
| 2026-04-30 18:22 | 47.47658 | 8.66391 | 5151 ft | 233 kts | 349° |
| 2026-04-30 18:23 | 47.49084 | 8.65161 | 5920 ft | 240 kts | 322° |
| 2026-04-30 18:23 | 47.50270 | 8.63446 | 6798 ft | 239 kts | 311° |
| 2026-04-30 18:23 | 47.50961 | 8.61183 | 7385 ft | 251 kts | 274° |
| 2026-04-30 18:23 | 47.50581 | 8.58673 | 7965 ft | 260 kts | 237° |
| 2026-04-30 18:24 | 47.48210 | 8.54094 | 9045 ft | 292 kts | 233° |
| 2026-04-30 18:24 | 47.47012 | 8.51655 | 9963 ft | 294 kts | 234° |
| 2026-04-30 18:24 | 47.45818 | 8.49152 | 10610 ft | 307 kts | 234° |
| 2026-04-30 18:25 | 47.44337 | 8.46739 | 10885 ft | 329 kts | 215° |
| 2026-04-30 18:25 | 47.39873 | 8.45248 | 12020 ft | 342 kts | 171° |
| 2026-04-30 18:25 | 47.37532 | 8.45737 | 12766 ft | 347 kts | 168° |
| 2026-04-30 18:26 | 47.32704 | 8.46839 | 14251 ft | 355 kts | 169° |
| 2026-04-30 18:26 | 47.30250 | 8.47402 | 14895 ft | 359 kts | 168° |
| 2026-04-30 18:26 | 47.27765 | 8.47965 | 15547 ft | 364 kts | 169° |
| 2026-04-30 18:27 | 47.22710 | 8.49097 | 16862 ft | 371 kts | 169° |
| 2026-04-30 18:27 | 47.20144 | 8.49661 | 17502 ft | 375 kts | 169° |
| 2026-04-30 18:28 | 47.14922 | 8.50797 | 18742 ft | 383 kts | 169° |
| 2026-04-30 18:28 | 47.12275 | 8.51377 | 19291 ft | 386 kts | 169° |
| 2026-04-30 18:28 | 47.06914 | 8.52554 | 20381 ft | 393 kts | 169° |
| 2026-04-30 18:29 | 47.04195 | 8.53149 | 20944 ft | 397 kts | 169° |
| 2026-04-30 18:29 | 46.95824 | 8.54492 | 22559 ft | 409 kts | 173° |
| 2026-04-30 18:30 | 46.90108 | 8.55225 | 23660 ft | 416 kts | 173° |
| 2026-04-30 18:30 | 46.84296 | 8.56022 | 24574 ft | 422 kts | 172° |
| 2026-04-30 18:31 | 46.81362 | 8.56446 | 25030 ft | 425 kts | 172° |
| 2026-04-30 18:31 | 46.75443 | 8.57310 | 25829 ft | 432 kts | 172° |
| 2026-04-30 18:32 | 46.69419 | 8.58180 | 26739 ft | 437 kts | 172° |
| 2026-04-30 18:32 | 46.66382 | 8.58615 | 27131 ft | 440 kts | 172° |
| 2026-04-30 18:32 | 46.60247 | 8.59478 | 27936 ft | 445 kts | 172° |
| 2026-04-30 18:33 | 46.57159 | 8.59915 | 28332 ft | 447 kts | 172° |
| 2026-04-30 18:33 | 46.50933 | 8.60798 | 29033 ft | 452 kts | 172° |
| 2026-04-30 18:33 | 46.47797 | 8.61240 | 29405 ft | 454 kts | 172° |
| 2026-04-30 18:34 | 46.44640 | 8.61688 | 29763 ft | 456 kts | 172° |
| 2026-04-30 18:34 | 46.38292 | 8.62588 | 30416 ft | 461 kts | 172° |
| 2026-04-30 18:34 | 46.35096 | 8.63037 | 30669 ft | 463 kts | 172° |
| 2026-04-30 18:35 | 46.31886 | 8.63488 | 30909 ft | 465 kts | 172° |
| 2026-04-30 18:35 | 46.28659 | 8.63947 | 31167 ft | 466 kts | 173° |
| 2026-04-30 18:35 | 46.25465 | 8.64400 | 31394 ft | 469 kts | 173° |
| 2026-04-30 18:36 | 46.18937 | 8.65311 | 31874 ft | 473 kts | 173° |
| 2026-04-30 18:36 | 46.15664 | 8.65764 | 32162 ft | 473 kts | 173° |
| 2026-04-30 18:36 | 46.09158 | 8.67077 | 32747 ft | 471 kts | 163° |
| 2026-04-30 18:37 | 46.06026 | 8.68432 | 33069 ft | 470 kts | 161° |
| 2026-04-30 18:37 | 46.02901 | 8.69822 | 33388 ft | 470 kts | 161° |
| 2026-04-30 18:37 | 45.99769 | 8.71211 | 33679 ft | 470 kts | 161° |
| 2026-04-30 18:37 | 45.96642 | 8.72593 | 34046 ft | 470 kts | 161° |
| 2026-04-30 18:38 | 45.93506 | 8.73976 | 34265 ft | 473 kts | 161° |
| 2026-04-30 18:38 | 45.90354 | 8.75357 | 34500 ft | 474 kts | 161° |
| 2026-04-30 18:38 | 45.87198 | 8.76730 | 34775 ft | 474 kts | 162° |
| 2026-04-30 18:38 | 45.84038 | 8.78102 | 35052 ft | 474 kts | 162° |
| 2026-04-30 18:39 | 45.80887 | 8.79476 | 35294 ft | 473 kts | 162° |
| 2026-04-30 18:39 | 45.77740 | 8.80854 | 35552 ft | 473 kts | 162° |
| 2026-04-30 18:39 | 45.74590 | 8.82229 | 35808 ft | 473 kts | 162° |
| 2026-04-30 18:39 | 45.71446 | 8.83598 | 36053 ft | 472 kts | 162° |
| 2026-04-30 18:40 | 45.68304 | 8.84968 | 36296 ft | 472 kts | 162° |
| 2026-04-30 18:40 | 45.65164 | 8.86335 | 36535 ft | 472 kts | 162° |
| 2026-04-30 18:40 | 45.62026 | 8.87697 | 36758 ft | 471 kts | 162° |